sensor_id;sensor_type;location;lat;lon;timestamp;P1;P2;P0
85148;PMS7003;75507;52.464;17.180;2024-01-30T00:00:06;69.25;52.00;32.00
85148;PMS7003;75507;52.464;17.180;2024-01-30T00:01:08;61.80;50.00;31.80
85148;PMS7003;75507;52.464;17.180;2024-01-30T00:02:08;67.00;51.67;32.00
85148;PMS7003;75507;52.464;17.180;2024-01-30T00:03:08;64.00;49.33;31.33
85148;PMS7003;75507;52.464;17.180;2024-01-30T00:04:09;63.00;50.00;31.25
85148;PMS7003;75507;52.464;17.180;2024-01-30T00:05:09;66.25;51.00;32.75
85148;PMS7003;75507;52.464;17.180;2024-01-30T00:06:09;64.50;50.00;31.75
85148;PMS7003;75507;52.464;17.180;2024-01-30T00:07:10;67.25;51.00;31.50
85148;PMS7003;75507;52.464;17.180;2024-01-30T00:08:10;65.75;49.75;31.00
85148;PMS7003;75507;52.464;17.180;2024-01-30T00:09:10;60.75;48.25;31.00
85148;PMS7003;75507;52.464;17.180;2024-01-30T00:10:11;66.67;49.67;32.67
85148;PMS7003;75507;52.464;17.180;2024-01-30T00:11:11;62.00;49.00;31.67
85148;PMS7003;75507;52.464;17.180;2024-01-30T00:12:11;67.00;50.67;32.00
85148;PMS7003;75507;52.464;17.180;2024-01-30T00:13:12;60.67;47.00;31.00
85148;PMS7003;75507;52.464;17.180;2024-01-30T00:14:14;65.00;50.00;31.00
85148;PMS7003;75507;52.464;17.180;2024-01-30T00:15:14;64.75;49.50;31.25
85148;PMS7003;75507;52.464;17.180;2024-01-30T00:16:21;66.67;50.00;32.33
85148;PMS7003;75507;52.464;17.180;2024-01-30T00:17:22;62.75;49.00;31.00
85148;PMS7003;75507;52.464;17.180;2024-01-30T00:18:22;69.50;50.25;31.50
85148;PMS7003;75507;52.464;17.180;2024-01-30T00:19:22;63.67;50.33;32.00
85148;PMS7003;75507;52.464;17.180;2024-01-30T00:20:23;64.00;49.75;32.00
85148;PMS7003;75507;52.464;17.180;2024-01-30T00:21:23;66.50;49.50;31.75
85148;PMS7003;75507;52.464;17.180;2024-01-30T00:22:23;62.33;49.33;30.33
85148;PMS7003;75507;52.464;17.180;2024-01-30T00:23:24;63.00;47.33;31.00
85148;PMS7003;75507;52.464;17.180;2024-01-30T00:24:24;64.50;49.25;31.25
85148;PMS7003;75507;52.464;17.180;2024-01-30T00:25:25;63.75;48.75;30.50
85148;PMS7003;75507;52.464;17.180;2024-01-30T00:26:25;62.75;48.25;30.25
85148;PMS7003;75507;52.464;17.180;2024-01-30T00:27:25;64.00;48.50;31.00
85148;PMS7003;75507;52.464;17.180;2024-01-30T00:28:27;61.40;47.00;30.20
85148;PMS7003;75507;52.464;17.180;2024-01-30T00:29:27;61.50;48.25;30.75
85148;PMS7003;75507;52.464;17.180;2024-01-30T00:30:30;67.00;50.00;31.00
85148;PMS7003;75507;52.464;17.180;2024-01-30T00:31:31;62.50;49.25;30.75
85148;PMS7003;75507;52.464;17.180;2024-01-30T00:32:31;63.25;50.00;32.00
85148;PMS7003;75507;52.464;17.180;2024-01-30T00:33:32;61.25;46.25;30.00
85148;PMS7003;75507;52.464;17.180;2024-01-30T00:34:32;64.00;48.75;30.75
85148;PMS7003;75507;52.464;17.180;2024-01-30T00:35:32;64.50;48.25;31.00
85148;PMS7003;75507;52.464;17.180;2024-01-30T00:36:32;65.00;48.67;31.00
85148;PMS7003;75507;52.464;17.180;2024-01-30T00:37:34;63.60;48.60;30.00
85148;PMS7003;75507;52.464;17.180;2024-01-30T00:38:34;65.50;48.75;31.00
85148;PMS7003;75507;52.464;17.180;2024-01-30T00:39:34;69.50;50.50;31.75
85148;PMS7003;75507;52.464;17.180;2024-01-30T00:40:35;62.00;47.00;30.00
85148;PMS7003;75507;52.464;17.180;2024-01-30T00:41:35;64.00;46.50;30.50
85148;PMS7003;75507;52.464;17.180;2024-01-30T00:42:35;62.25;48.25;31.00
85148;PMS7003;75507;52.464;17.180;2024-01-30T00:43:36;62.00;50.00;32.00
85148;PMS7003;75507;52.464;17.180;2024-01-30T00:44:37;65.75;49.75;32.00
85148;PMS7003;75507;52.464;17.180;2024-01-30T00:45:38;62.20;47.60;30.60
85148;PMS7003;75507;52.464;17.180;2024-01-30T00:46:38;63.00;48.75;29.25
85148;PMS7003;75507;52.464;17.180;2024-01-30T00:47:39;62.25;47.75;31.00
85148;PMS7003;75507;52.464;17.180;2024-01-30T00:48:39;68.67;50.67;30.67
85148;PMS7003;75507;52.464;17.180;2024-01-30T00:49:39;62.00;47.50;30.75
85148;PMS7003;75507;52.464;17.180;2024-01-30T00:50:40;61.25;46.75;31.00
85148;PMS7003;75507;52.464;17.180;2024-01-30T00:51:40;61.00;46.33;30.33
85148;PMS7003;75507;52.464;17.180;2024-01-30T00:52:40;66.67;47.00;31.00
85148;PMS7003;75507;52.464;17.180;2024-01-30T00:53:41;65.20;50.40;30.80
85148;PMS7003;75507;52.464;17.180;2024-01-30T00:54:42;65.25;48.25;31.00
85148;PMS7003;75507;52.464;17.180;2024-01-30T00:55:43;64.75;49.50;30.75
85148;PMS7003;75507;52.464;17.180;2024-01-30T00:56:43;64.33;49.33;31.33
85148;PMS7003;75507;52.464;17.180;2024-01-30T00:57:43;63.33;49.33;31.00
85148;PMS7003;75507;52.464;17.180;2024-01-30T00:58:44;68.25;48.75;31.25
85148;PMS7003;75507;52.464;17.180;2024-01-30T00:59:44;68.50;50.25;31.00
85148;PMS7003;75507;52.464;17.180;2024-01-30T01:00:44;65.25;50.00;31.00
85148;PMS7003;75507;52.464;17.180;2024-01-30T01:01:45;59.60;47.40;31.00
85148;PMS7003;75507;52.464;17.180;2024-01-30T01:02:45;65.33;51.00;31.00
85148;PMS7003;75507;52.464;17.180;2024-01-30T01:03:45;65.67;48.33;32.00
85148;PMS7003;75507;52.464;17.180;2024-01-30T01:04:46;65.50;50.75;32.00
85148;PMS7003;75507;52.464;17.180;2024-01-30T01:05:46;64.67;48.67;31.00
85148;PMS7003;75507;52.464;17.180;2024-01-30T01:06:47;67.50;50.25;31.00
85148;PMS7003;75507;52.464;17.180;2024-01-30T01:07:47;63.00;50.00;31.33
85148;PMS7003;75507;52.464;17.180;2024-01-30T01:08:48;70.75;51.00;31.75
85148;PMS7003;75507;52.464;17.180;2024-01-30T01:09:48;65.25;50.25;31.00
85148;PMS7003;75507;52.464;17.180;2024-01-30T01:10:48;68.33;50.33;33.00
85148;PMS7003;75507;52.464;17.180;2024-01-30T01:11:49;65.75;50.00;32.25
85148;PMS7003;75507;52.464;17.180;2024-01-30T01:12:49;66.33;49.00;31.67
85148;PMS7003;75507;52.464;17.180;2024-01-30T01:13:49;65.50;50.50;31.75
85148;PMS7003;75507;52.464;17.180;2024-01-30T01:14:50;67.33;51.33;32.67
85148;PMS7003;75507;52.464;17.180;2024-01-30T01:15:50;65.00;51.00;32.00
85148;PMS7003;75507;52.464;17.180;2024-01-30T01:16:50;64.33;51.33;33.00
85148;PMS7003;75507;52.464;17.180;2024-01-30T01:17:51;66.00;48.00;31.00
85148;PMS7003;75507;52.464;17.180;2024-01-30T01:18:51;66.33;50.00;31.67
85148;PMS7003;75507;52.464;17.180;2024-01-30T01:19:51;67.25;51.00;33.00
85148;PMS7003;75507;52.464;17.180;2024-01-30T01:20:52;67.75;50.75;32.50
85148;PMS7003;75507;52.464;17.180;2024-01-30T01:21:52;65.00;50.00;31.50
85148;PMS7003;75507;52.464;17.180;2024-01-30T01:22:53;63.75;48.00;31.25
85148;PMS7003;75507;52.464;17.180;2024-01-30T01:23:54;69.00;49.00;30.00
85148;PMS7003;75507;52.464;17.180;2024-01-30T01:24:54;64.50;50.50;32.00
85148;PMS7003;75507;52.464;17.180;2024-01-30T01:25:54;67.33;50.67;31.67
85148;PMS7003;75507;52.464;17.180;2024-01-30T01:26:55;69.75;53.50;33.75
85148;PMS7003;75507;52.464;17.180;2024-01-30T01:27:56;61.40;50.00;32.80
85148;PMS7003;75507;52.464;17.180;2024-01-30T01:28:57;65.00;50.00;32.00
85148;PMS7003;75507;52.464;17.180;2024-01-30T01:29:57;64.00;48.00;31.00
85148;PMS7003;75507;52.464;17.180;2024-01-30T01:30:57;61.75;49.50;31.00
85148;PMS7003;75507;52.464;17.180;2024-01-30T01:32:05;61.50;49.00;31.00
85148;PMS7003;75507;52.464;17.180;2024-01-30T01:33:05;68.00;50.40;32.40
85148;PMS7003;75507;52.464;17.180;2024-01-30T01:34:06;62.50;49.00;31.25
85148;PMS7003;75507;52.464;17.180;2024-01-30T01:35:07;65.75;50.75;32.75
85148;PMS7003;75507;52.464;17.180;2024-01-30T01:36:07;69.33;49.67;30.00
85148;PMS7003;75507;52.464;17.180;2024-01-30T01:37:07;66.00;50.00;32.75
85148;PMS7003;75507;52.464;17.180;2024-01-30T01:38:08;65.00;49.00;31.50
85148;PMS7003;75507;52.464;17.180;2024-01-30T01:39:08;66.00;50.25;32.50
85148;PMS7003;75507;52.464;17.180;2024-01-30T01:40:08;69.00;53.00;33.00
85148;PMS7003;75507;52.464;17.180;2024-01-30T01:41:09;62.20;47.40;29.80
85148;PMS7003;75507;52.464;17.180;2024-01-30T01:42:09;64.00;50.00;32.00
85148;PMS7003;75507;52.464;17.180;2024-01-30T01:43:10;66.50;51.00;32.00
85148;PMS7003;75507;52.464;17.180;2024-01-30T01:44:10;67.33;51.00;32.00
85148;PMS7003;75507;52.464;17.180;2024-01-30T01:45:10;65.50;50.50;32.75
85148;PMS7003;75507;52.464;17.180;2024-01-30T01:46:11;66.67;52.67;32.67
85148;PMS7003;75507;52.464;17.180;2024-01-30T01:47:11;63.25;50.25;31.25
85148;PMS7003;75507;52.464;17.180;2024-01-30T01:48:11;65.00;51.00;32.00
85148;PMS7003;75507;52.464;17.180;2024-01-30T01:49:12;63.50;49.00;32.00
85148;PMS7003;75507;52.464;17.180;2024-01-30T01:50:14;68.00;51.50;33.00
85148;PMS7003;75507;52.464;17.180;2024-01-30T01:51:18;66.00;50.25;32.00
85148;PMS7003;75507;52.464;17.180;2024-01-30T01:52:19;72.75;51.00;34.00
85148;PMS7003;75507;52.464;17.180;2024-01-30T01:53:19;68.25;53.75;32.25
85148;PMS7003;75507;52.464;17.180;2024-01-30T01:54:20;64.75;52.75;32.75
85148;PMS7003;75507;52.464;17.180;2024-01-30T01:55:21;65.50;49.25;30.50
85148;PMS7003;75507;52.464;17.180;2024-01-30T01:56:22;69.80;50.60;32.80
85148;PMS7003;75507;52.464;17.180;2024-01-30T01:57:23;65.40;50.20;33.20
85148;PMS7003;75507;52.464;17.180;2024-01-30T01:58:23;67.33;50.33;32.00
85148;PMS7003;75507;52.464;17.180;2024-01-30T01:59:28;64.00;50.00;31.75
85148;PMS7003;75507;52.464;17.180;2024-01-30T02:00:29;61.33;48.00;31.00
85148;PMS7003;75507;52.464;17.180;2024-01-30T02:01:29;65.75;51.50;32.00
85148;PMS7003;75507;52.464;17.180;2024-01-30T02:02:31;67.00;51.25;31.75
85148;PMS7003;75507;52.464;17.180;2024-01-30T02:03:35;70.75;49.50;33.00
85148;PMS7003;75507;52.464;17.180;2024-01-30T02:04:35;64.75;50.00;31.00
85148;PMS7003;75507;52.464;17.180;2024-01-30T02:05:36;62.50;48.25;31.25
85148;PMS7003;75507;52.464;17.180;2024-01-30T02:06:37;64.50;49.00;31.25
85148;PMS7003;75507;52.464;17.180;2024-01-30T02:07:37;63.20;51.00;31.80
85148;PMS7003;75507;52.464;17.180;2024-01-30T02:08:38;66.00;48.50;31.00
85148;PMS7003;75507;52.464;17.180;2024-01-30T02:09:39;66.00;51.00;32.50
85148;PMS7003;75507;52.464;17.180;2024-01-30T02:10:39;64.50;51.50;31.50
85148;PMS7003;75507;52.464;17.180;2024-01-30T02:11:39;66.50;49.25;31.25
85148;PMS7003;75507;52.464;17.180;2024-01-30T02:12:41;60.80;45.80;30.00
85148;PMS7003;75507;52.464;17.180;2024-01-30T02:13:41;60.75;47.75;30.25
85148;PMS7003;75507;52.464;17.180;2024-01-30T02:14:47;63.00;49.00;31.33
85148;PMS7003;75507;52.464;17.180;2024-01-30T02:15:49;63.80;49.20;31.00
85148;PMS7003;75507;52.464;17.180;2024-01-30T02:16:50;70.50;52.00;32.00
85148;PMS7003;75507;52.464;17.180;2024-01-30T02:17:50;62.33;46.67;30.00
85148;PMS7003;75507;52.464;17.180;2024-01-30T02:18:51;62.50;49.25;31.25
85148;PMS7003;75507;52.464;17.180;2024-01-30T02:19:51;60.00;47.00;30.00
85148;PMS7003;75507;52.464;17.180;2024-01-30T02:20:53;62.25;47.75;31.50
85148;PMS7003;75507;52.464;17.180;2024-01-30T02:21:54;62.50;47.75;31.00
85148;PMS7003;75507;52.464;17.180;2024-01-30T02:22:54;64.00;48.00;31.00
85148;PMS7003;75507;52.464;17.180;2024-01-30T02:23:56;66.00;50.00;31.00
85148;PMS7003;75507;52.464;17.180;2024-01-30T02:24:57;62.60;50.00;33.00
85148;PMS7003;75507;52.464;17.180;2024-01-30T02:25:57;66.50;48.25;31.25
85148;PMS7003;75507;52.464;17.180;2024-01-30T02:26:57;59.50;48.00;31.50
85148;PMS7003;75507;52.464;17.180;2024-01-30T02:27:58;66.75;50.50;30.75
85148;PMS7003;75507;52.464;17.180;2024-01-30T02:28:58;63.25;47.75;30.00
85148;PMS7003;75507;52.464;17.180;2024-01-30T02:29:58;65.50;48.50;31.00
85148;PMS7003;75507;52.464;17.180;2024-01-30T02:30:59;64.67;51.00;31.00
85148;PMS7003;75507;52.464;17.180;2024-01-30T02:31:59;64.50;50.00;32.75
85148;PMS7003;75507;52.464;17.180;2024-01-30T02:32:59;63.00;47.33;30.67
85148;PMS7003;75507;52.464;17.180;2024-01-30T02:34:00;67.00;51.25;32.50
85148;PMS7003;75507;52.464;17.180;2024-01-30T02:35:00;63.25;47.75;31.00
85148;PMS7003;75507;52.464;17.180;2024-01-30T02:36:00;68.50;50.00;31.75
85148;PMS7003;75507;52.464;17.180;2024-01-30T02:37:01;66.33;50.33;30.67
85148;PMS7003;75507;52.464;17.180;2024-01-30T02:38:01;64.50;47.50;31.00
85148;PMS7003;75507;52.464;17.180;2024-01-30T02:39:02;64.25;47.75;31.50
85148;PMS7003;75507;52.464;17.180;2024-01-30T02:40:02;61.50;48.75;31.25
85148;PMS7003;75507;52.464;17.180;2024-01-30T02:41:03;63.20;48.00;31.00
85148;PMS7003;75507;52.464;17.180;2024-01-30T02:42:03;67.50;50.50;32.00
85148;PMS7003;75507;52.464;17.180;2024-01-30T02:43:04;67.75;50.25;31.00
85148;PMS7003;75507;52.464;17.180;2024-01-30T02:44:05;65.00;50.00;30.00
85148;PMS7003;75507;52.464;17.180;2024-01-30T02:45:05;64.50;49.50;31.75
85148;PMS7003;75507;52.464;17.180;2024-01-30T02:46:06;66.25;49.75;32.00
85148;PMS7003;75507;52.464;17.180;2024-01-30T02:47:06;65.67;48.00;30.00
85148;PMS7003;75507;52.464;17.180;2024-01-30T02:48:06;69.00;52.00;32.75
85148;PMS7003;75507;52.464;17.180;2024-01-30T02:49:07;61.75;49.25;31.00
85148;PMS7003;75507;52.464;17.180;2024-01-30T02:50:07;66.50;51.00;32.00
85148;PMS7003;75507;52.464;17.180;2024-01-30T02:51:08;66.25;52.00;32.00
85148;PMS7003;75507;52.464;17.180;2024-01-30T02:52:08;67.33;50.67;31.33
85148;PMS7003;75507;52.464;17.180;2024-01-30T02:53:09;64.00;50.00;31.25
85148;PMS7003;75507;52.464;17.180;2024-01-30T02:54:09;63.75;50.00;32.00
85148;PMS7003;75507;52.464;17.180;2024-01-30T02:55:09;69.75;49.75;31.00
85148;PMS7003;75507;52.464;17.180;2024-01-30T02:56:10;65.20;50.00;32.40
85148;PMS7003;75507;52.464;17.180;2024-01-30T02:57:10;64.50;48.50;31.50
85148;PMS7003;75507;52.464;17.180;2024-01-30T02:58:11;63.67;49.67;31.00
85148;PMS7003;75507;52.464;17.180;2024-01-30T02:59:11;64.50;50.00;31.25
85148;PMS7003;75507;52.464;17.180;2024-01-30T03:00:11;63.75;51.00;31.00
85148;PMS7003;75507;52.464;17.180;2024-01-30T03:01:12;62.40;48.00;30.40
85148;PMS7003;75507;52.464;17.180;2024-01-30T03:02:12;64.67;49.33;32.00
85148;PMS7003;75507;52.464;17.180;2024-01-30T03:03:13;62.33;48.33;32.33
85148;PMS7003;75507;52.464;17.180;2024-01-30T03:04:13;64.00;49.00;31.50
85148;PMS7003;75507;52.464;17.180;2024-01-30T03:05:13;64.50;50.00;31.75
85148;PMS7003;75507;52.464;17.180;2024-01-30T03:06:14;65.00;48.50;31.25
85148;PMS7003;75507;52.464;17.180;2024-01-30T03:07:17;60.25;48.25;31.00
85148;PMS7003;75507;52.464;17.180;2024-01-30T03:08:17;62.00;49.67;30.33
85148;PMS7003;75507;52.464;17.180;2024-01-30T03:09:18;59.00;48.00;31.25
85148;PMS7003;75507;52.464;17.180;2024-01-30T03:10:18;64.00;50.00;32.00
85148;PMS7003;75507;52.464;17.180;2024-01-30T03:11:18;67.33;49.00;31.00
85148;PMS7003;75507;52.464;17.180;2024-01-30T03:12:19;61.50;49.25;30.75
85148;PMS7003;75507;52.464;17.180;2024-01-30T03:13:19;61.00;47.33;30.67
85148;PMS7003;75507;52.464;17.180;2024-01-30T03:14:19;62.50;47.00;29.50
85148;PMS7003;75507;52.464;17.180;2024-01-30T03:15:20;63.75;50.00;31.00
85148;PMS7003;75507;52.464;17.180;2024-01-30T03:16:20;62.00;46.00;31.00
85148;PMS7003;75507;52.464;17.180;2024-01-30T03:17:20;64.75;51.00;32.00
85148;PMS7003;75507;52.464;17.180;2024-01-30T03:18:21;60.67;46.00;30.67
85148;PMS7003;75507;52.464;17.180;2024-01-30T03:19:21;59.25;48.25;30.00
85148;PMS7003;75507;52.464;17.180;2024-01-30T03:20:21;62.75;47.50;29.50
85148;PMS7003;75507;52.464;17.180;2024-01-30T03:21:22;62.25;50.00;31.00
85148;PMS7003;75507;52.464;17.180;2024-01-30T03:22:22;63.50;48.50;30.75
85148;PMS7003;75507;52.464;17.180;2024-01-30T03:23:22;62.75;49.00;31.00
85148;PMS7003;75507;52.464;17.180;2024-01-30T03:24:23;62.33;50.00;30.33
85148;PMS7003;75507;52.464;17.180;2024-01-30T03:25:23;62.00;47.75;29.50
85148;PMS7003;75507;52.464;17.180;2024-01-30T03:26:23;63.75;47.75;30.00
85148;PMS7003;75507;52.464;17.180;2024-01-30T03:27:24;61.25;47.25;31.00
85148;PMS7003;75507;52.464;17.180;2024-01-30T03:28:24;63.67;49.33;31.00
85148;PMS7003;75507;52.464;17.180;2024-01-30T03:29:24;59.50;46.00;30.25
85148;PMS7003;75507;52.464;17.180;2024-01-30T03:30:25;64.67;48.67;31.00
85148;PMS7003;75507;52.464;17.180;2024-01-30T03:31:25;61.75;47.75;30.75
85148;PMS7003;75507;52.464;17.180;2024-01-30T03:32:25;62.00;46.67;29.00
85148;PMS7003;75507;52.464;17.180;2024-01-30T03:33:26;63.75;48.00;31.00
85148;PMS7003;75507;52.464;17.180;2024-01-30T03:34:27;60.25;45.75;29.00
85148;PMS7003;75507;52.464;17.180;2024-01-30T03:35:27;60.25;46.00;30.75
85148;PMS7003;75507;52.464;17.180;2024-01-30T03:36:27;62.25;47.00;30.00
85148;PMS7003;75507;52.464;17.180;2024-01-30T03:37:28;60.25;46.75;30.50
85148;PMS7003;75507;52.464;17.180;2024-01-30T03:38:28;66.00;48.00;30.00
85148;PMS7003;75507;52.464;17.180;2024-01-30T03:39:29;58.00;46.25;30.50
85148;PMS7003;75507;52.464;17.180;2024-01-30T03:40:30;59.60;46.80;30.00
85148;PMS7003;75507;52.464;17.180;2024-01-30T03:41:30;61.00;47.67;28.67
85148;PMS7003;75507;52.464;17.180;2024-01-30T03:42:31;62.33;47.67;29.33
85148;PMS7003;75507;52.464;17.180;2024-01-30T03:43:31;61.75;46.00;30.75
85148;PMS7003;75507;52.464;17.180;2024-01-30T03:44:31;62.00;48.00;30.50
85148;PMS7003;75507;52.464;17.180;2024-01-30T03:45:31;60.25;45.25;28.50
85148;PMS7003;75507;52.464;17.180;2024-01-30T03:46:32;64.75;47.75;29.00
85148;PMS7003;75507;52.464;17.180;2024-01-30T03:47:32;63.00;46.00;29.67
85148;PMS7003;75507;52.464;17.180;2024-01-30T03:48:32;60.50;46.75;29.00
85148;PMS7003;75507;52.464;17.180;2024-01-30T03:49:33;61.75;46.25;29.75
85148;PMS7003;75507;52.464;17.180;2024-01-30T03:50:33;61.33;45.67;28.67
85148;PMS7003;75507;52.464;17.180;2024-01-30T03:51:33;63.00;45.50;28.75
85148;PMS7003;75507;52.464;17.180;2024-01-30T03:52:34;53.75;45.00;28.75
85148;PMS7003;75507;52.464;17.180;2024-01-30T03:53:34;58.00;47.75;29.75
85148;PMS7003;75507;52.464;17.180;2024-01-30T03:54:35;59.00;46.00;30.50
85148;PMS7003;75507;52.464;17.180;2024-01-30T03:55:35;64.25;49.00;30.00
85148;PMS7003;75507;52.464;17.180;2024-01-30T03:56:36;61.67;47.67;30.00
85148;PMS7003;75507;52.464;17.180;2024-01-30T03:57:36;59.33;46.33;29.33
85148;PMS7003;75507;52.464;17.180;2024-01-30T03:58:36;58.50;45.00;29.00
85148;PMS7003;75507;52.464;17.180;2024-01-30T03:59:37;59.00;43.50;29.50
85148;PMS7003;75507;52.464;17.180;2024-01-30T04:00:37;52.50;41.00;27.00
85148;PMS7003;75507;52.464;17.180;2024-01-30T04:01:37;58.00;45.00;29.00
85148;PMS7003;75507;52.464;17.180;2024-01-30T04:02:38;59.25;46.00;30.00
85148;PMS7003;75507;52.464;17.180;2024-01-30T04:03:38;56.25;44.00;29.00
85148;PMS7003;75507;52.464;17.180;2024-01-30T04:04:38;62.25;47.00;30.25
85148;PMS7003;75507;52.464;17.180;2024-01-30T04:05:39;62.00;46.50;30.00
85148;PMS7003;75507;52.464;17.180;2024-01-30T04:06:39;58.50;44.00;28.00
85148;PMS7003;75507;52.464;17.180;2024-01-30T04:07:39;61.75;45.75;28.75
85148;PMS7003;75507;52.464;17.180;2024-01-30T04:08:40;61.00;46.25;30.75
85148;PMS7003;75507;52.464;17.180;2024-01-30T04:09:40;60.75;46.00;28.00
85148;PMS7003;75507;52.464;17.180;2024-01-30T04:10:40;60.00;46.50;29.25
85148;PMS7003;75507;52.464;17.180;2024-01-30T04:11:41;60.75;45.75;29.25
85148;PMS7003;75507;52.464;17.180;2024-01-30T04:12:44;59.80;46.00;30.00
85148;PMS7003;75507;52.464;17.180;2024-01-30T04:13:44;57.50;44.00;29.00
85148;PMS7003;75507;52.464;17.180;2024-01-30T04:14:46;55.20;44.80;29.00
85148;PMS7003;75507;52.464;17.180;2024-01-30T04:15:47;61.00;46.00;29.00
85148;PMS7003;75507;52.464;17.180;2024-01-30T04:16:47;52.33;42.33;28.00
85148;PMS7003;75507;52.464;17.180;2024-01-30T04:17:47;61.00;46.25;29.25
85148;PMS7003;75507;52.464;17.180;2024-01-30T04:18:48;60.75;45.00;29.00
85148;PMS7003;75507;52.464;17.180;2024-01-30T04:19:48;57.00;43.00;27.00
85148;PMS7003;75507;52.464;17.180;2024-01-30T04:20:48;58.00;45.67;28.33
85148;PMS7003;75507;52.464;17.180;2024-01-30T04:21:49;61.50;44.25;29.00
85148;PMS7003;75507;52.464;17.180;2024-01-30T04:22:49;60.25;46.00;28.00
85148;PMS7003;75507;52.464;17.180;2024-01-30T04:23:50;59.00;45.00;28.00
85148;PMS7003;75507;52.464;17.180;2024-01-30T04:24:51;58.80;44.00;28.80
85148;PMS7003;75507;52.464;17.180;2024-01-30T04:25:51;60.00;45.00;28.00
85148;PMS7003;75507;52.464;17.180;2024-01-30T04:26:52;58.75;44.00;28.00
85148;PMS7003;75507;52.464;17.180;2024-01-30T04:27:52;56.67;43.00;28.33
85148;PMS7003;75507;52.464;17.180;2024-01-30T04:28:52;56.00;43.00;28.75
85148;PMS7003;75507;52.464;17.180;2024-01-30T04:29:53;54.25;43.75;27.75
85148;PMS7003;75507;52.464;17.180;2024-01-30T04:30:53;59.25;44.25;28.00
85148;PMS7003;75507;52.464;17.180;2024-01-30T04:31:53;55.25;44.50;28.75
85148;PMS7003;75507;52.464;17.180;2024-01-30T04:32:54;58.00;46.00;29.00
85148;PMS7003;75507;52.464;17.180;2024-01-30T04:33:54;60.00;45.00;28.50
85148;PMS7003;75507;52.464;17.180;2024-01-30T04:34:54;54.25;43.25;27.25
85148;PMS7003;75507;52.464;17.180;2024-01-30T04:35:55;60.75;45.25;29.50
85148;PMS7003;75507;52.464;17.180;2024-01-30T04:36:55;56.60;43.20;28.00
85148;PMS7003;75507;52.464;17.180;2024-01-30T04:37:56;55.00;44.00;28.00
85148;PMS7003;75507;52.464;17.180;2024-01-30T04:38:56;60.75;47.00;29.00
85148;PMS7003;75507;52.464;17.180;2024-01-30T04:39:56;56.25;43.50;27.50
85148;PMS7003;75507;52.464;17.180;2024-01-30T04:40:56;58.75;44.00;28.50
85148;PMS7003;75507;52.464;17.180;2024-01-30T04:41:57;57.00;43.67;27.67
85148;PMS7003;75507;52.464;17.180;2024-01-30T04:42:57;61.25;45.75;29.50
85148;PMS7003;75507;52.464;17.180;2024-01-30T04:43:57;57.50;45.25;27.50
85148;PMS7003;75507;52.464;17.180;2024-01-30T04:44:58;53.50;44.00;27.75
85148;PMS7003;75507;52.464;17.180;2024-01-30T04:45:58;59.67;47.33;30.00
85148;PMS7003;75507;52.464;17.180;2024-01-30T04:46:59;58.00;46.00;28.33
85148;PMS7003;75507;52.464;17.180;2024-01-30T04:48:01;58.75;44.25;28.25
85148;PMS7003;75507;52.464;17.180;2024-01-30T04:49:01;59.00;45.00;27.75
85148;PMS7003;75507;52.464;17.180;2024-01-30T04:50:03;60.50;45.00;28.00
85148;PMS7003;75507;52.464;17.180;2024-01-30T04:51:04;58.40;44.40;27.00
85148;PMS7003;75507;52.464;17.180;2024-01-30T04:52:05;58.00;44.75;28.00
85148;PMS7003;75507;52.464;17.180;2024-01-30T04:53:06;56.00;44.00;29.00
85148;PMS7003;75507;52.464;17.180;2024-01-30T04:54:08;58.00;44.00;28.40
85148;PMS7003;75507;52.464;17.180;2024-01-30T04:55:08;61.25;48.00;29.00
85148;PMS7003;75507;52.464;17.180;2024-01-30T04:56:08;58.25;44.75;28.00
85148;PMS7003;75507;52.464;17.180;2024-01-30T04:57:09;57.67;44.33;28.00
85148;PMS7003;75507;52.464;17.180;2024-01-30T04:58:12;55.00;42.50;27.75
85148;PMS7003;75507;52.464;17.180;2024-01-30T04:59:12;54.00;42.25;27.00
85148;PMS7003;75507;52.464;17.180;2024-01-30T05:00:12;56.00;44.00;28.00
85148;PMS7003;75507;52.464;17.180;2024-01-30T05:01:16;53.75;44.00;29.00
85148;PMS7003;75507;52.464;17.180;2024-01-30T05:02:17;49.75;42.00;27.50
85148;PMS7003;75507;52.464;17.180;2024-01-30T05:03:18;57.50;44.75;28.00
85148;PMS7003;75507;52.464;17.180;2024-01-30T05:04:19;56.00;43.00;27.00
85148;PMS7003;75507;52.464;17.180;2024-01-30T05:05:19;53.50;42.50;27.00
85148;PMS7003;75507;52.464;17.180;2024-01-30T05:06:27;55.00;43.75;27.50
85148;PMS7003;75507;52.464;17.180;2024-01-30T05:07:28;55.25;43.25;27.25
85148;PMS7003;75507;52.464;17.180;2024-01-30T05:08:28;57.67;45.33;28.33
85148;PMS7003;75507;52.464;17.180;2024-01-30T05:09:28;59.50;46.25;29.25
85148;PMS7003;75507;52.464;17.180;2024-01-30T05:10:29;57.33;44.67;28.00
85148;PMS7003;75507;52.464;17.180;2024-01-30T05:11:29;58.67;45.33;28.00
85148;PMS7003;75507;52.464;17.180;2024-01-30T05:12:30;55.40;43.80;28.00
85148;PMS7003;75507;52.464;17.180;2024-01-30T05:13:31;54.25;43.75;29.25
85148;PMS7003;75507;52.464;17.180;2024-01-30T05:14:31;56.75;44.75;28.25
85148;PMS7003;75507;52.464;17.180;2024-01-30T05:15:31;55.33;43.00;28.00
85148;PMS7003;75507;52.464;17.180;2024-01-30T05:16:32;53.50;43.75;28.00
85148;PMS7003;75507;52.464;17.180;2024-01-30T05:17:32;56.25;44.50;27.75
85148;PMS7003;75507;52.464;17.180;2024-01-30T05:18:33;58.50;44.25;28.00
85148;PMS7003;75507;52.464;17.180;2024-01-30T05:19:33;56.25;45.50;28.00
85148;PMS7003;75507;52.464;17.180;2024-01-30T05:20:34;56.00;43.67;28.33
85148;PMS7003;75507;52.464;17.180;2024-01-30T05:21:34;58.50;46.00;28.75
85148;PMS7003;75507;52.464;17.180;2024-01-30T05:22:34;55.67;43.33;27.33
85148;PMS7003;75507;52.464;17.180;2024-01-30T05:23:35;54.75;42.50;27.50
85148;PMS7003;75507;52.464;17.180;2024-01-30T05:24:35;60.33;44.00;27.67
85148;PMS7003;75507;52.464;17.180;2024-01-30T05:25:36;55.50;43.50;27.25
85148;PMS7003;75507;52.464;17.180;2024-01-30T05:26:37;55.75;43.50;27.75
85148;PMS7003;75507;52.464;17.180;2024-01-30T05:27:37;56.75;44.00;29.00
85148;PMS7003;75507;52.464;17.180;2024-01-30T05:28:38;57.00;43.75;27.75
85148;PMS7003;75507;52.464;17.180;2024-01-30T05:29:38;53.67;43.33;27.67
85148;PMS7003;75507;52.464;17.180;2024-01-30T05:30:38;55.75;43.00;27.25
85148;PMS7003;75507;52.464;17.180;2024-01-30T05:31:39;58.50;42.50;27.00
85148;PMS7003;75507;52.464;17.180;2024-01-30T05:32:39;54.00;43.50;27.50
85148;PMS7003;75507;52.464;17.180;2024-01-30T05:33:40;54.25;42.00;27.00
85148;PMS7003;75507;52.464;17.180;2024-01-30T05:34:40;56.20;43.00;27.80